EDAC/ADC METAR and TAF weather

Enter ICAO airport designator
Station Type Date Time Source
EDAC METAR 2021/03/02 12:50 UTC NOAA

EDAC 021250Z 31004KT 280V340 CAVOK 10/04 Q1033


Station Type Date Time Source
EDAC Decoded METAR 2021/03/02 12:50 UTC NOAA

Altenburg Nobitz, Germany (EDAC) 50-58N 012-30E
Mar 02, 2021 - 07:50 AM EST / 2021.03.02 1250 UTC
Wind: from the NW (310 degrees) at 5 MPH (4 KT) (direction variable):0
Visibility: greater than 7 mile(s):0
Temperature: 50 F (10 C)
Dew Point: 39 F (4 C)
Relative Humidity: 66%
Pressure (altimeter): 30.50 in. Hg (1033 hPa)
ob: EDAC 021250Z 31004KT 280V340 CAVOK 10/04 Q1033
cycle: 13

Station Type Date Time Source
EDAC TAF UTC NOAA

Error!

Example: see airport list